Time;durP1;ratioP1;P1;durP2;ratioP2;P2;SDS_P1;SDS_P2;PMS_P1;PMS_P2;Temp;Humidity;BMP_temperature;BMP_pressure;BME280_temperature;BME280_humidity;BME280_pressure;Samples;Min_cycle;Max_cycle;Signal;HPM_P1;HPM_P2
2023/05/16 00:01:29;;;;;;;16.17;2.15;;;9.00;99.90;;;;;;5070538;28;20606;-59
2023/05/16 00:03:56;;;;;;;11.82;2.13;;;9.00;99.90;;;;;;5053071;28;20043;-58
2023/05/16 00:06:22;;;;;;;13.48;2.80;;;9.00;99.90;;;;;;5034355;28;20566;-60
2023/05/16 00:08:48;;;;;;;16.80;2.53;;;8.90;99.90;;;;;;5070738;28;20094;-59
2023/05/16 00:11:16;;;;;;;22.02;4.15;;;8.90;99.90;;;;;;5070881;28;20086;-59
2023/05/16 00:13:41;;;;;;;11.45;1.65;;;9.00;99.90;;;;;;5069260;28;20064;-60
2023/05/16 00:16:08;;;;;;;14.40;2.25;;;8.90;99.90;;;;;;5070813;28;20076;-59
2023/05/16 00:18:37;;;;;;;14.93;2.15;;;8.80;99.90;;;;;;5070679;28;20040;-59
2023/05/16 00:21:03;;;;;;;15.85;2.33;;;8.80;99.90;;;;;;5070738;28;20041;-59
2023/05/16 00:23:30;;;;;;;15.68;2.22;;;8.80;99.90;;;;;;5070376;28;20036;-59
2023/05/16 00:25:55;;;;;;;12.88;2.03;;;8.70;99.90;;;;;;5069886;28;20504;-59
2023/05/16 00:28:21;;;;;;;19.08;2.22;;;8.70;99.90;;;;;;5069679;28;20052;-61
2023/05/16 00:30:47;;;;;;;12.30;2.22;;;8.70;99.90;;;;;;5070479;28;20041;-61
2023/05/16 00:33:13;;;;;;;18.90;2.20;;;8.60;99.90;;;;;;5051840;28;20036;-58
2023/05/16 00:35:39;;;;;;;15.98;2.50;;;8.50;99.90;;;;;;5070250;28;20040;-59
2023/05/16 00:38:05;;;;;;;14.88;2.20;;;8.50;99.90;;;;;;5070541;28;20035;-59
2023/05/16 00:40:31;;;;;;;16.00;2.22;;;8.50;99.90;;;;;;5064147;28;20098;-59
2023/05/16 00:42:57;;;;;;;17.85;2.28;;;8.40;99.90;;;;;;5070329;28;20480;-58
2023/05/16 00:45:23;;;;;;;16.20;2.13;;;8.40;99.90;;;;;;5069726;28;20047;-60
2023/05/16 00:47:50;;;;;;;12.02;1.83;;;8.40;99.90;;;;;;5069848;28;20395;-61
2023/05/16 00:50:17;;;;;;;19.15;2.25;;;8.30;99.90;;;;;;5068573;28;20051;-59
2023/05/16 00:52:42;;;;;;;12.10;1.70;;;8.30;99.90;;;;;;5070033;28;20475;-60
2023/05/16 00:55:11;;;;;;;13.63;3.28;;;8.30;99.90;;;;;;5069499;28;20048;-58
2023/05/16 00:57:38;;;;;;;10.80;2.38;;;8.30;99.90;;;;;;5068167;28;20048;-59
2023/05/16 01:00:05;;;;;;;13.73;2.05;;;8.20;99.90;;;;;;5069780;28;20041;-59
2023/05/16 01:02:33;;;;;;;18.38;2.25;;;8.20;99.90;;;;;;5035083;28;20098;-58
2023/05/16 01:05:00;;;;;;;14.63;2.55;;;8.20;99.90;;;;;;5069516;28;20094;-60
2023/05/16 01:07:25;;;;;;;15.05;2.70;;;8.20;99.90;;;;;;5069914;28;20052;-59
2023/05/16 01:09:52;;;;;;;11.05;1.60;;;8.20;99.90;;;;;;5069897;28;20045;-59
2023/05/16 01:12:40;;;;;;;16.38;2.33;;;8.20;99.90;;;;;;5070112;28;20758;-58
2023/05/16 01:15:09;;;;;;;18.90;2.28;;;8.10;99.90;;;;;;5069660;28;20098;-58
2023/05/16 01:17:42;;;;;;;14.57;2.17;;;8.10;99.90;;;;;;5069838;28;20043;-58
2023/05/16 01:20:31;;;;;;;12.02;1.92;;;8.00;99.90;;;;;;5069255;28;20048;-58
2023/05/16 01:23:16;;;;;;;10.77;2.25;;;8.00;99.90;;;;;;5069156;28;20143;-59
2023/05/16 01:25:41;;;;;;;;;;;8.00;99.90;;;;;;5066809;28;20067;-58
2023/05/16 01:28:08;;;;;;;15.02;1.92;;;8.00;99.90;;;;;;5049877;28;20383;-60
2023/05/16 01:30:40;;;;;;;15.52;2.00;;;7.90;99.90;;;;;;5048708;28;20095;-58
2023/05/16 01:33:06;;;;;;;9.35;1.77;;;7.90;99.90;;;;;;5048111;28;20055;-59
2023/05/16 01:35:34;;;;;;;12.88;1.90;;;7.90;99.90;;;;;;5049529;28;20040;-60
2023/05/16 01:38:26;;;;;;;13.88;1.70;;;7.90;99.90;;;;;;5061281;28;20115;-59
2023/05/16 01:40:58;;;;;;;13.48;2.33;;;7.90;99.90;;;;;;5052133;28;20124;-60
2023/05/16 01:43:33;;;;;;;11.07;2.10;;;7.90;99.90;;;;;;5051319;28;20047;-58
2023/05/16 01:46:08;;;;;;;15.30;2.10;;;7.90;99.90;;;;;;5052819;28;20044;-62
2023/05/16 01:48:57;;;;;;;15.35;2.10;;;7.90;99.90;;;;;;5053214;28;20528;-60
2023/05/16 01:51:29;;;;;;;16.02;2.00;;;7.80;99.90;;;;;;5052647;28;20044;-59
2023/05/16 01:54:02;;;;;;;12.73;1.98;;;7.70;99.90;;;;;;5052781;28;20499;-62
2023/05/16 01:56:28;;;;;;;12.40;1.63;;;7.80;99.90;;;;;;5052867;28;20450;-60
2023/05/16 01:58:56;;;;;;;11.25;1.48;;;7.80;99.90;;;;;;5052986;28;20056;-58
2023/05/16 02:01:22;;;;;;;16.02;2.58;;;7.80;99.90;;;;;;5052978;28;20051;-60
2023/05/16 02:03:47;;;;;;;10.50;1.58;;;7.70;99.90;;;;;;5053234;28;20123;-59
2023/05/16 02:06:13;;;;;;;17.73;1.95;;;7.70;99.90;;;;;;5035743;28;20128;-61
2023/05/16 02:08:39;;;;;;;11.38;2.17;;;7.70;99.90;;;;;;5053557;28;20099;-60
2023/05/16 02:11:05;;;;;;;13.30;2.25;;;7.70;99.90;;;;;;5053270;28;20472;-58
2023/05/16 02:13:30;;;;;;;12.15;1.80;;;7.70;99.90;;;;;;5052945;28;20067;-58
2023/05/16 02:15:56;;;;;;;16.60;2.38;;;7.70;99.90;;;;;;5052879;28;20036;-59
2023/05/16 02:18:22;;;;;;;9.90;1.63;;;7.70;99.90;;;;;;5052983;28;20091;-60
2023/05/16 02:20:48;;;;;;;14.80;2.08;;;7.70;99.90;;;;;;5035134;28;20440;-59
2023/05/16 02:23:14;;;;;;;10.80;1.48;;;7.60;99.90;;;;;;5034254;28;20070;-60
2023/05/16 02:25:40;;;;;;;12.88;1.92;;;7.60;99.90;;;;;;5052531;28;20500;-60
2023/05/16 02:28:06;;;;;;;11.27;1.80;;;7.60;99.90;;;;;;5069801;28;20443;-59
2023/05/16 02:30:32;;;;;;;10.93;1.90;;;7.60;99.90;;;;;;5073273;28;20081;-60
2023/05/16 02:32:57;;;;;;;11.63;2.13;;;7.50;99.90;;;;;;5073364;28;20032;-60
2023/05/16 02:35:23;;;;;;;9.20;1.90;;;7.50;99.90;;;;;;5072088;28;20115;-59
2023/05/16 02:37:49;;;;;;;16.02;1.77;;;7.50;99.90;;;;;;5072109;28;20044;-60
2023/05/16 02:40:14;;;;;;;12.07;1.80;;;7.50;99.90;;;;;;5072104;28;20099;-60
2023/05/16 02:42:40;;;;;;;11.35;1.70;;;7.50;99.90;;;;;;5072590;28;20082;-59
2023/05/16 02:45:06;;;;;;;12.50;1.80;;;7.40;99.90;;;;;;5072130;28;20487;-61
2023/05/16 02:47:32;;;;;;;12.52;1.92;;;7.40;99.90;;;;;;5072296;28;20035;-59
2023/05/16 02:49:57;;;;;;;9.85;2.63;;;7.40;99.90;;;;;;5072372;28;20036;-60
2023/05/16 02:52:23;;;;;;;11.10;1.60;;;7.30;99.90;;;;;;5072163;28;20036;-61
2023/05/16 02:54:49;;;;;;;11.30;2.10;;;7.30;99.90;;;;;;5053591;28;20071;-60
2023/05/16 02:57:15;;;;;;;11.57;2.35;;;7.30;99.90;;;;;;5072073;28;20039;-60
2023/05/16 02:59:40;;;;;;;11.23;1.90;;;7.30;99.90;;;;;;5072016;28;20045;-59
2023/05/16 03:02:06;;;;;;;14.15;1.98;;;7.30;99.90;;;;;;5054320;28;20145;-60
2023/05/16 03:04:32;;;;;;;9.30;2.00;;;7.30;99.90;;;;;;5072037;28;20107;-60
2023/05/16 03:06:59;;;;;;;12.45;2.50;;;7.30;99.90;;;;;;5071882;28;20613;-59
2023/05/16 03:09:25;;;;;;;11.25;2.03;;;7.30;99.90;;;;;;5054175;28;20033;-58
2023/05/16 03:11:50;;;;;;;13.95;1.90;;;7.20;99.90;;;;;;5071646;28;20036;-61
2023/05/16 03:14:16;;;;;;;13.98;1.77;;;7.30;99.90;;;;;;5070295;28;20040;-60
2023/05/16 03:16:42;;;;;;;15.10;2.22;;;7.30;99.90;;;;;;5071768;28;20040;-60
2023/05/16 03:19:09;;;;;;;10.25;1.73;;;7.30;99.90;;;;;;5071751;28;20041;-58
2023/05/16 03:21:35;;;;;;;17.23;2.08;;;7.20;99.90;;;;;;5071869;28;20025;-58
2023/05/16 03:24:04;;;;;;;18.27;2.35;;;7.20;99.90;;;;;;5053752;28;20380;-59
2023/05/16 03:26:29;;;;;;;16.90;1.80;;;7.20;99.90;;;;;;5070927;28;20052;-59
2023/05/16 03:28:55;;;;;;;16.77;2.03;;;7.20;99.90;;;;;;5071842;28;20067;-59
2023/05/16 03:31:21;;;;;;;8.07;1.88;;;7.10;99.90;;;;;;5071876;28;20491;-59
2023/05/16 03:33:46;;;;;;;12.27;2.15;;;7.10;99.90;;;;;;5071315;28;20123;-60
2023/05/16 03:36:12;;;;;;;11.75;2.08;;;7.10;99.90;;;;;;5072418;28;20036;-59
2023/05/16 03:38:38;;;;;;;10.80;2.20;;;7.10;99.90;;;;;;5071651;28;20483;-60
2023/05/16 03:41:04;;;;;;;12.30;1.88;;;7.10;99.90;;;;;;5071137;28;20090;-59
2023/05/16 03:43:29;;;;;;;12.25;2.20;;;7.00;99.90;;;;;;5071339;28;20036;-59
2023/05/16 03:45:55;;;;;;;14.65;2.15;;;7.00;99.90;;;;;;5071449;28;20124;-61
2023/05/16 03:48:21;;;;;;;16.00;1.65;;;7.10;99.90;;;;;;5071142;28;20102;-59
2023/05/16 03:50:47;;;;;;;11.98;1.70;;;7.00;99.90;;;;;;5071559;28;20045;-59
2023/05/16 03:53:12;;;;;;;10.80;1.85;;;7.00;99.90;;;;;;5071297;28;20122;-61
2023/05/16 03:55:38;;;;;;;9.18;1.60;;;7.00;99.90;;;;;;5070584;28;20044;-58
2023/05/16 03:58:04;;;;;;;11.57;2.05;;;7.00;99.90;;;;;;5069761;28;20090;-61
2023/05/16 04:00:29;;;;;;;16.75;2.15;;;7.00;99.90;;;;;;5053676;28;20045;-60
2023/05/16 04:02:55;;;;;;;16.23;1.98;;;7.00;99.90;;;;;;5070722;28;20396;-60
2023/05/16 04:05:21;;;;;;;14.35;1.92;;;7.00;99.90;;;;;;5070590;28;20627;-60
2023/05/16 04:07:46;;;;;;;12.07;2.03;;;7.00;99.90;;;;;;5070812;28;20121;-60
2023/05/16 04:10:13;;;;;;;11.25;1.70;;;7.00;99.90;;;;;;5070836;28;20040;-60
2023/05/16 04:12:39;;;;;;;14.70;2.30;;;7.00;99.90;;;;;;5071148;28;20513;-60
2023/05/16 04:15:06;;;;;;;12.13;2.00;;;7.00;99.90;;;;;;5071564;28;20175;-60
2023/05/16 04:17:32;;;;;;;14.90;1.73;;;7.00;99.90;;;;;;5070983;28;20036;-59
2023/05/16 04:19:59;;;;;;;13.15;2.25;;;7.00;99.90;;;;;;5070453;28;20059;-59
2023/05/16 04:22:25;;;;;;;10.43;2.00;;;7.10;99.90;;;;;;5070258;28;20032;-59
2023/05/16 04:24:51;;;;;;;9.63;1.80;;;7.10;99.90;;;;;;5070306;28;20059;-60
2023/05/16 04:27:17;;;;;;;11.85;2.08;;;7.10;99.90;;;;;;5069898;28;20048;-61
2023/05/16 04:29:43;;;;;;;10.35;1.83;;;7.10;99.90;;;;;;5070462;28;20076;-59
2023/05/16 04:32:09;;;;;;;11.57;2.10;;;7.20;99.90;;;;;;5068865;28;20032;-59
2023/05/16 04:34:36;;;;;;;12.60;2.08;;;7.20;99.90;;;;;;5050744;28;20150;-61
2023/05/16 04:37:06;;;;;;;14.82;2.40;;;7.20;99.90;;;;;;5070326;28;20068;-59
2023/05/16 04:39:32;;;;;;;11.45;2.67;;;7.20;99.90;;;;;;5052114;28;20052;-58
2023/05/16 04:41:58;;;;;;;9.52;1.98;;;7.30;99.90;;;;;;5070097;28;20036;-59
2023/05/16 04:44:25;;;;;;;9.63;1.60;;;7.40;99.90;;;;;;5067972;28;20078;-58
2023/05/16 04:46:52;;;;;;;13.48;2.45;;;7.40;99.90;;;;;;5069821;28;20047;-58
2023/05/16 04:49:21;;;;;;;12.95;1.67;;;7.50;99.90;;;;;;5070318;28;20043;-60
2023/05/16 04:51:47;;;;;;;11.50;2.08;;;7.50;99.90;;;;;;5068018;28;20506;-61
2023/05/16 04:54:13;;;;;;;13.20;1.65;;;7.50;99.90;;;;;;5070024;28;20094;-60
2023/05/16 04:56:38;;;;;;;13.40;2.17;;;7.50;99.90;;;;;;5069797;28;20471;-61
2023/05/16 04:59:04;;;;;;;10.10;2.00;;;7.60;99.90;;;;;;5070608;28;20029;-61
2023/05/16 05:01:30;;;;;;;13.38;2.38;;;7.70;99.90;;;;;;5070258;28;20467;-59
2023/05/16 05:03:55;;;;;;;10.40;1.95;;;7.70;99.90;;;;;;5069931;28;20036;-59
2023/05/16 05:06:21;;;;;;;12.90;1.63;;;7.90;99.90;;;;;;5069820;28;20048;-58
2023/05/16 05:08:47;;;;;;;13.27;1.70;;;7.90;99.90;;;;;;5069937;28;20043;-59
2023/05/16 05:11:13;;;;;;;15.13;1.48;;;8.00;99.90;;;;;;5051790;28;20040;-59
2023/05/16 05:13:38;;;;;;;12.75;2.20;;;8.10;99.90;;;;;;5051890;28;20051;-60
2023/05/16 05:16:04;;;;;;;14.52;1.88;;;8.10;99.90;;;;;;5070034;28;20048;-58
2023/05/16 05:18:30;;;;;;;12.00;1.90;;;8.20;99.90;;;;;;5051909;28;20036;-60
2023/05/16 05:20:56;;;;;;;14.85;2.35;;;8.20;99.90;;;;;;5069496;28;20105;-59
2023/05/16 05:23:22;;;;;;;8.05;2.05;;;8.30;99.90;;;;;;5069484;28;20033;-60
2023/05/16 05:25:49;;;;;;;13.45;1.98;;;8.40;99.90;;;;;;5051036;28;20383;-62
2023/05/16 05:28:15;;;;;;;9.13;1.70;;;8.40;99.90;;;;;;5068376;28;20487;-59
2023/05/16 05:30:41;;;;;;;16.58;1.92;;;8.50;99.90;;;;;;5068316;28;20048;-59
2023/05/16 05:33:06;;;;;;;12.05;1.77;;;8.60;99.90;;;;;;5069552;28;20042;-60
2023/05/16 05:35:32;;;;;;;12.48;1.63;;;8.60;99.90;;;;;;5069550;28;20498;-59
2023/05/16 05:37:58;;;;;;;8.00;1.50;;;8.70;99.90;;;;;;5059209;28;20384;-59
2023/05/16 05:40:24;;;;;;;12.43;1.77;;;8.80;99.90;;;;;;5069665;28;20037;-61
2023/05/16 05:42:50;;;;;;;11.93;1.90;;;8.80;99.90;;;;;;5068149;28;20066;-60
2023/05/16 05:45:15;;;;;;;11.70;1.52;;;8.90;99.90;;;;;;5051599;28;20032;-60
2023/05/16 05:47:42;;;;;;;16.42;2.55;;;8.90;99.90;;;;;;5069483;28;20052;-61
2023/05/16 05:50:10;;;;;;;8.00;1.45;;;9.00;99.90;;;;;;5069402;28;20040;-59
2023/05/16 05:52:36;;;;;;;14.35;1.92;;;9.00;99.90;;;;;;5069469;28;20151;-59
2023/05/16 05:55:02;;;;;;;12.02;1.67;;;9.10;99.90;;;;;;5068726;28;20432;-62
2023/05/16 05:57:28;;;;;;;15.88;2.00;;;9.10;99.90;;;;;;5069416;28;20071;-60
2023/05/16 05:59:54;;;;;;;15.48;2.13;;;9.20;99.90;;;;;;5069453;28;20041;-60
2023/05/16 06:02:20;;;;;;;7.03;1.10;;;9.30;99.90;;;;;;5068258;28;20044;-61
2023/05/16 06:04:46;;;;;;;9.98;1.67;;;9.30;99.90;;;;;;5068707;28;20059;-60
2023/05/16 06:07:11;;;;;;;10.77;1.50;;;9.30;99.90;;;;;;5069165;28;20049;-60
2023/05/16 06:09:37;;;;;;;11.43;2.13;;;9.40;99.90;;;;;;5069674;28;20545;-61
2023/05/16 06:12:03;;;;;;;13.35;1.92;;;9.50;99.90;;;;;;5051283;28;20158;-59
2023/05/16 06:14:29;;;;;;;10.43;1.58;;;9.50;99.90;;;;;;5069111;28;20036;-60
2023/05/16 06:16:55;;;;;;;13.57;2.10;;;9.60;99.90;;;;;;5050557;28;20040;-58
2023/05/16 06:19:21;;;;;;;17.45;1.77;;;9.70;99.90;;;;;;5068812;28;20033;-60
2023/05/16 06:21:46;;;;;;;11.77;1.60;;;9.80;99.90;;;;;;5068975;28;20040;-59
2023/05/16 06:24:12;;;;;;;11.07;1.58;;;9.90;99.90;;;;;;5069068;28;20032;-58
2023/05/16 06:26:38;;;;;;;14.32;2.17;;;10.10;99.90;;;;;;5070239;28;20048;-60
2023/05/16 06:29:03;;;;;;;9.50;1.52;;;10.30;99.90;;;;;;5065568;28;20033;-61
2023/05/16 06:31:30;;;;;;;9.88;1.33;;;10.30;99.90;;;;;;5063564;28;20033;-60
2023/05/16 06:33:56;;;;;;;9.45;1.13;;;10.40;99.90;;;;;;5061693;28;20111;-60
2023/05/16 06:36:21;;;;;;;10.85;1.50;;;10.50;99.90;;;;;;5063411;28;20040;-61
2023/05/16 06:38:47;;;;;;;8.00;1.13;;;10.50;99.90;;;;;;5061727;28;20033;-60
2023/05/16 06:41:13;;;;;;;11.35;1.35;;;10.40;99.90;;;;;;5063435;28;20123;-60
2023/05/16 06:43:39;;;;;;;11.27;1.40;;;10.50;99.90;;;;;;5062359;28;20037;-58
2023/05/16 06:46:05;;;;;;;7.95;1.30;;;10.50;99.90;;;;;;5045418;28;20036;-60
2023/05/16 06:48:30;;;;;;;7.63;1.45;;;10.60;99.90;;;;;;5062372;28;20051;-61
2023/05/16 06:50:56;;;;;;;10.80;2.47;;;10.60;99.90;;;;;;5060994;28;20119;-60
2023/05/16 06:53:22;;;;;;;7.00;1.25;;;10.50;99.90;;;;;;5048644;28;20045;-57
2023/05/16 06:55:48;;;;;;;7.88;1.40;;;10.50;99.90;;;;;;5041948;28;20055;-60
2023/05/16 06:58:14;;;;;;;6.82;1.15;;;10.30;99.90;;;;;;5070424;28;20548;-63
2023/05/16 07:00:40;;;;;;;9.82;1.38;;;10.30;99.90;;;;;;5070284;28;20044;-61
2023/05/16 07:03:06;;;;;;;4.78;1.17;;;10.20;99.90;;;;;;5054507;28;20051;-62
2023/05/16 07:05:32;;;;;;;7.35;1.17;;;10.20;99.90;;;;;;5072486;28;20029;-61
2023/05/16 07:07:58;;;;;;;6.28;1.27;;;10.30;99.90;;;;;;5073029;28;20036;-59
2023/05/16 07:10:24;;;;;;;7.10;1.77;;;10.30;99.90;;;;;;5054652;28;20044;-60
2023/05/16 07:12:50;;;;;;;12.23;2.35;;;10.40;99.90;;;;;;5071697;28;20044;-60
2023/05/16 07:15:15;;;;;;;10.55;1.80;;;10.50;99.90;;;;;;5071915;28;20090;-61
2023/05/16 07:17:41;;;;;;;4.93;1.20;;;10.60;99.90;;;;;;5071998;28;20071;-60
2023/05/16 07:20:12;;;;;;;6.53;1.35;;;10.80;99.90;;;;;;5071565;28;20036;-61
2023/05/16 07:22:38;;;;;;;8.82;1.60;;;10.90;99.90;;;;;;5072176;28;20052;-60
2023/05/16 07:25:04;;;;;;;7.28;1.48;;;10.90;99.90;;;;;;5071843;28;20032;-59
2023/05/16 07:27:30;;;;;;;13.05;1.30;;;11.00;99.90;;;;;;5064793;28;20080;-61
2023/05/16 07:29:56;;;;;;;7.63;1.00;;;11.10;99.90;;;;;;5071756;28;20445;-61
2023/05/16 07:32:22;;;;;;;9.20;1.17;;;11.10;99.90;;;;;;5071705;28;20119;-59
2023/05/16 07:34:48;;;;;;;8.98;1.40;;;11.20;99.90;;;;;;5071568;28;20460;-61
2023/05/16 07:37:15;;;;;;;6.80;0.90;;;11.20;99.90;;;;;;5070220;28;20531;-62
2023/05/16 07:39:41;;;;;;;6.88;1.42;;;11.30;99.90;;;;;;5071560;28;20419;-60
2023/05/16 07:42:07;;;;;;;9.32;1.33;;;11.50;99.90;;;;;;5053360;28;20045;-59
2023/05/16 07:44:33;;;;;;;6.65;1.35;;;11.70;99.90;;;;;;5071651;28;20506;-61
2023/05/16 07:46:59;;;;;;;7.72;1.00;;;11.90;99.90;;;;;;5071113;28;20056;-60
2023/05/16 07:49:25;;;;;;;10.68;1.65;;;12.00;99.90;;;;;;5053138;28;20029;-60
2023/05/16 07:51:51;;;;;;;9.85;1.50;;;12.00;99.90;;;;;;5070938;28;20488;-61
2023/05/16 07:54:17;;;;;;;9.75;1.33;;;11.80;99.90;;;;;;5071621;28;20090;-60
2023/05/16 07:56:43;;;;;;;10.38;1.20;;;11.60;99.90;;;;;;5071417;28;20033;-61
2023/05/16 07:59:09;;;;;;;8.50;1.88;;;11.40;99.90;;;;;;5071191;28;20453;-60
2023/05/16 08:01:35;;;;;;;8.82;1.50;;;11.30;99.90;;;;;;5070856;28;20051;-61
2023/05/16 08:04:00;;;;;;;8.77;1.20;;;11.20;99.90;;;;;;5070938;28;20032;-61
2023/05/16 08:06:26;;;;;;;7.63;1.38;;;11.30;99.90;;;;;;5070836;28;20436;-58
2023/05/16 08:08:52;;;;;;;8.73;1.30;;;11.40;99.90;;;;;;5053375;28;20036;-60
2023/05/16 08:11:21;;;;;;;9.65;1.48;;;11.50;99.90;;;;;;5071517;28;20033;-61
2023/05/16 08:13:47;;;;;;;10.30;1.40;;;11.60;99.90;;;;;;5071222;28;20092;-62
2023/05/16 08:16:13;;;;;;;9.18;1.25;;;11.70;99.90;;;;;;5052487;28;20403;-61
2023/05/16 08:18:38;;;;;;;13.65;1.80;;;11.70;99.90;;;;;;5070323;28;20025;-60
2023/05/16 08:21:04;;;;;;;7.75;1.63;;;11.80;99.90;;;;;;5070321;28;20044;-61
2023/05/16 08:23:30;;;;;;;7.20;1.30;;;11.90;99.90;;;;;;5036215;28;20385;-62
2023/05/16 08:25:57;;;;;;;9.23;1.20;;;12.00;99.90;;;;;;5070829;28;20035;-61
2023/05/16 08:28:23;;;;;;;8.35;1.65;;;12.10;99.90;;;;;;5070632;28;20048;-59
2023/05/16 08:30:48;;;;;;;9.82;1.13;;;12.20;99.90;;;;;;5052109;28;20115;-62
2023/05/16 08:33:14;;;;;;;5.95;1.30;;;12.40;99.90;;;;;;5050573;28;20112;-61
2023/05/16 08:35:43;;;;;;;7.40;1.10;;;12.60;99.90;;;;;;5050273;28;20111;-60
2023/05/16 08:38:09;;;;;;;8.13;1.55;;;12.80;99.90;;;;;;5050508;28;20033;-60
2023/05/16 08:40:35;;;;;;;5.53;1.00;;;12.90;99.90;;;;;;5050290;28;20033;-58
2023/05/16 08:43:01;;;;;;;9.63;1.13;;;12.90;99.90;;;;;;5050593;28;20111;-59
2023/05/16 08:45:29;;;;;;;6.35;1.13;;;12.80;99.90;;;;;;5049916;28;20044;-62
2023/05/16 08:47:55;;;;;;;8.07;1.20;;;12.50;99.90;;;;;;5050288;28;20463;-58
2023/05/16 08:50:21;;;;;;;3.92;0.90;;;12.10;99.90;;;;;;5050811;28;20089;-60
2023/05/16 08:52:51;;;;;;;4.32;0.77;;;11.80;99.90;;;;;;5050229;28;20041;-59
2023/05/16 08:55:20;;;;;;;4.68;0.80;;;11.60;99.90;;;;;;5049825;28;20044;-62
2023/05/16 08:57:48;;;;;;;5.57;0.80;;;11.40;99.90;;;;;;5050513;28;20021;-60
2023/05/16 09:00:14;;;;;;;4.68;1.00;;;11.40;99.90;;;;;;5051979;28;20059;-60
2023/05/16 09:02:43;;;;;;;6.10;0.93;;;11.40;99.90;;;;;;5070000;28;20070;-63
2023/05/16 09:05:11;;;;;;;4.90;1.17;;;11.60;99.90;;;;;;5051615;28;20029;-60
2023/05/16 09:07:37;;;;;;;5.65;1.10;;;11.70;99.90;;;;;;5050364;28;20424;-58
2023/05/16 09:10:05;;;;;;;8.95;1.10;;;11.80;99.90;;;;;;5049810;28;20384;-58
2023/05/16 09:12:32;;;;;;;8.98;1.30;;;12.00;99.90;;;;;;5032007;28;20048;-59
2023/05/16 09:14:58;;;;;;;7.43;1.20;;;12.20;99.90;;;;;;5049961;28;20412;-59
2023/05/16 09:17:24;;;;;;;6.88;1.20;;;12.50;99.90;;;;;;5049653;28;20037;-60
2023/05/16 09:19:51;;;;;;;9.52;1.20;;;12.70;99.90;;;;;;5031876;28;20056;-60
2023/05/16 09:22:17;;;;;;;4.88;1.10;;;12.70;99.90;;;;;;5049670;28;20052;-63
2023/05/16 09:24:45;;;;;;;6.82;1.25;;;12.60;99.90;;;;;;5047186;28;20175;-62
2023/05/16 09:27:14;;;;;;;8.27;1.10;;;12.60;99.90;;;;;;5055094;28;20511;-61
2023/05/16 09:29:44;;;;;;;9.30;1.73;;;12.80;99.90;;;;;;5067300;28;20044;-62
2023/05/16 09:32:14;;;;;;;9.45;1.00;;;13.00;99.90;;;;;;5067139;28;20392;-62
2023/05/16 09:34:48;;;;;;;8.55;1.58;;;13.30;99.90;;;;;;5066654;28;20068;-61
2023/05/16 09:37:17;;;;;;;9.93;1.47;;;13.60;99.90;;;;;;5061036;28;20067;-61
2023/05/16 09:39:50;;;;;;;7.78;1.30;;;13.70;99.90;;;;;;5065567;28;20330;-60
2023/05/16 09:42:17;;;;;;;8.15;1.33;;;13.60;99.90;;;;;;5065845;28;20033;-61
2023/05/16 09:44:50;;;;;;;9.15;1.35;;;13.60;99.90;;;;;;5058952;28;20485;-61
2023/05/16 09:47:17;;;;;;;7.95;1.27;;;13.90;99.90;;;;;;5059893;28;20120;-61
2023/05/16 09:49:45;;;;;;;8.20;1.15;;;14.10;99.90;;;;;;5068600;28;20472;-61
2023/05/16 09:52:11;;;;;;;8.00;1.48;;;14.20;99.90;;;;;;5063760;28;20441;-59
2023/05/16 09:54:37;;;;;;;6.25;0.98;;;14.10;99.90;;;;;;5064865;28;20396;-60
2023/05/16 09:57:03;;;;;;;7.95;1.35;;;14.00;99.90;;;;;;5054822;28;20044;-60
2023/05/16 09:59:29;;;;;;;9.02;1.20;;;14.20;99.90;;;;;;5056996;28;20257;-62
2023/05/16 10:02:00;;;;;;;5.85;1.52;;;14.40;99.90;;;;;;5052862;28;20122;-62
2023/05/16 10:04:26;;;;;;;7.93;1.30;;;14.40;99.90;;;;;;5074289;28;20064;-64
2023/05/16 10:06:56;;;;;;;7.88;1.50;;;14.20;99.90;;;;;;5073912;28;20484;-61
2023/05/16 10:09:23;;;;;;;8.27;1.90;;;14.00;99.90;;;;;;5073509;28;20047;-61
2023/05/16 10:11:50;;;;;;;11.02;1.73;;;13.70;99.90;;;;;;5073873;28;20395;-61
2023/05/16 10:14:17;;;;;;;9.00;1.63;;;13.50;99.90;;;;;;5073552;28;20033;-60
2023/05/16 10:16:47;;;;;;;8.85;1.63;;;13.50;99.90;;;;;;5055669;28;20036;-63
2023/05/16 10:19:14;;;;;;;8.18;1.40;;;13.70;99.90;;;;;;5072476;28;20037;-61
2023/05/16 10:21:45;;;;;;;9.25;1.40;;;13.90;99.90;;;;;;5073820;28;20036;-60
2023/05/16 10:24:13;;;;;;;8.30;1.80;;;14.20;99.90;;;;;;5073776;28;20044;-62
2023/05/16 10:26:39;;;;;;;8.05;1.65;;;14.50;99.90;;;;;;5073046;28;20564;-61
2023/05/16 10:29:06;;;;;;;5.93;1.30;;;14.70;99.90;;;;;;5073589;28;20115;-63
2023/05/16 10:31:32;;;;;;;8.20;1.98;;;14.80;99.90;;;;;;5074033;28;20094;-64
2023/05/16 10:33:57;;;;;;;6.35;1.52;;;14.80;99.90;;;;;;5073718;28;20036;-61
2023/05/16 10:36:24;;;;;;;9.55;1.75;;;14.70;99.90;;;;;;5073197;28;20102;-61
2023/05/16 10:38:50;;;;;;;7.25;1.90;;;14.50;99.90;;;;;;5072815;28;20045;-62
2023/05/16 10:41:17;;;;;;;8.48;1.80;;;14.50;99.90;;;;;;5073301;28;20048;-63
2023/05/16 10:43:56;;;;;;;6.97;1.30;;;14.60;99.90;;;;;;5055431;28;20040;-63
2023/05/16 10:46:23;;;;;;;6.43;1.42;;;14.70;99.90;;;;;;5073281;28;20041;-62
2023/05/16 10:48:48;;;;;;;7.68;1.70;;;15.00;99.90;;;;;;5073697;28;20036;-60
2023/05/16 10:51:35;;;;;;;8.25;1.83;;;15.10;99.90;;;;;;5073307;28;20036;-60
2023/05/16 10:54:09;;;;;;;8.23;1.75;;;15.00;99.90;;;;;;5073291;28;20033;-61
2023/05/16 10:56:36;;;;;;;7.57;1.50;;;14.90;99.90;;;;;;5055137;28;20128;-63
2023/05/16 10:59:03;;;;;;;8.93;1.60;;;14.80;99.90;;;;;;5073532;28;20388;-58
2023/05/16 11:01:31;;;;;;;9.00;1.67;;;14.60;99.90;;;;;;5073036;28;20040;-62
2023/05/16 11:03:57;;;;;;;8.77;2.17;;;14.70;99.90;;;;;;5065743;28;20124;-61
2023/05/16 11:06:24;;;;;;;8.43;2.10;;;14.90;99.90;;;;;;5071234;28;20116;-60
2023/05/16 11:09:12;;;;;;;6.05;1.50;;;15.10;99.90;;;;;;5071129;28;20032;-59
2023/05/16 11:11:57;;;;;;;6.70;1.98;;;15.20;99.90;;;;;;5061305;28;20598;-61
2023/05/16 11:14:46;;;;;;;6.07;1.40;;;15.30;99.90;;;;;;5068605;28;20040;-62
2023/05/16 11:17:20;;;;;;;9.73;2.13;;;15.30;99.90;;;;;;5067201;28;20086;-62
2023/05/16 11:19:57;;;;;;;8.55;2.70;;;15.30;99.90;;;;;;5066133;28;20543;-64
2023/05/16 11:22:25;;;;;;;6.90;1.77;;;15.20;99.90;;;;;;5046578;28;20029;-63
2023/05/16 11:25:05;;;;;;;7.75;1.83;;;15.40;99.90;;;;;;5063441;28;20094;-62
2023/05/16 11:27:35;;;;;;;7.43;1.40;;;15.60;99.90;;;;;;5059651;28;20059;-62
2023/05/16 11:30:04;;;;;;;7.78;1.90;;;15.70;99.90;;;;;;5071298;28;20048;-64
2023/05/16 11:32:32;;;;;;;5.28;1.50;;;15.60;99.90;;;;;;5072430;28;20037;-62
2023/05/16 11:34:58;;;;;;;7.43;1.90;;;15.30;99.90;;;;;;5053636;28;20041;-61
2023/05/16 11:37:23;;;;;;;8.40;1.70;;;15.00;99.90;;;;;;5072770;28;20044;-64
2023/05/16 11:39:49;;;;;;;8.27;1.83;;;14.50;99.90;;;;;;5071753;28;20107;-60
2023/05/16 11:42:16;;;;;;;7.35;1.55;;;14.10;99.90;;;;;;5054044;28;20036;-60
2023/05/16 11:44:43;;;;;;;8.88;1.70;;;13.50;99.90;;;;;;5070979;28;20041;-63
2023/05/16 11:47:08;;;;;;;7.20;1.70;;;13.10;99.90;;;;;;5071704;28;20028;-62
2023/05/16 11:49:35;;;;;;;7.55;1.35;;;13.00;99.90;;;;;;5052284;28;20052;-62
2023/05/16 11:52:01;;;;;;;7.63;1.67;;;12.50;99.90;;;;;;5069346;28;20041;-60
2023/05/16 11:54:27;;;;;;;5.85;1.10;;;12.50;99.90;;;;;;5069962;28;20419;-62
2023/05/16 11:56:53;;;;;;;5.35;1.15;;;12.50;99.90;;;;;;5070973;28;20032;-59
2023/05/16 11:59:19;;;;;;;6.60;1.20;;;12.70;99.90;;;;;;5053791;28;20059;-60
2023/05/16 12:01:48;;;;;;;5.82;1.05;;;12.90;99.90;;;;;;5071464;28;20098;-62
2023/05/16 12:04:15;;;;;;;3.97;0.85;;;13.00;99.90;;;;;;5071168;28;20032;-60
2023/05/16 12:06:44;;;;;;;4.78;0.80;;;13.30;99.90;;;;;;5071759;28;20489;-58
2023/05/16 12:09:14;;;;;;;5.35;1.00;;;13.80;99.90;;;;;;5071713;28;20028;-60
2023/05/16 12:11:42;;;;;;;3.70;0.77;;;14.20;99.90;;;;;;5071589;28;20044;-60
2023/05/16 12:14:12;;;;;;;4.95;0.98;;;14.20;99.90;;;;;;5071242;28;20411;-59
2023/05/16 12:16:41;;;;;;;4.72;1.10;;;14.20;99.90;;;;;;5071818;28;20045;-58
2023/05/16 12:19:07;;;;;;;3.90;1.20;;;14.20;99.90;;;;;;5071763;28;20496;-60
2023/05/16 12:21:33;;;;;;;7.18;1.40;;;14.40;99.90;;;;;;5071147;28;20176;-61
2023/05/16 12:24:00;;;;;;;2.25;0.77;;;14.50;99.90;;;;;;5070683;28;20048;-59
2023/05/16 12:26:29;;;;;;;4.28;0.70;;;14.60;99.90;;;;;;5069925;28;20039;-60
2023/05/16 12:29:04;;;;;;;3.92;1.02;;;14.60;99.90;;;;;;5036675;28;20447;-62
2023/05/16 12:31:34;;;;;;;4.50;1.10;;;14.60;99.90;;;;;;5051565;28;20398;-57
2023/05/16 12:34:00;;;;;;;3.63;1.17;;;14.50;99.90;;;;;;5051255;28;20033;-59
2023/05/16 12:36:31;;;;;;;5.55;1.23;;;14.60;99.90;;;;;;5051171;28;20047;-60
2023/05/16 12:39:01;;;;;;;4.35;1.00;;;14.90;99.90;;;;;;5051226;28;20044;-62
2023/05/16 12:41:29;;;;;;;4.13;0.93;;;15.10;99.90;;;;;;5036959;28;20048;-58
2023/05/16 12:44:12;;;;;;;4.25;1.08;;;15.50;99.90;;;;;;5050829;28;20399;-62
2023/05/16 12:46:42;;;;;;;3.80;1.10;;;15.80;99.90;;;;;;5051038;28;20119;-61
2023/05/16 12:49:08;;;;;;;5.78;1.20;;;16.10;99.90;;;;;;5051015;28;20103;-58